Time;durP1;ratioP1;P1;durP2;ratioP2;P2;SDS_P1;SDS_P2;PMS_P1;PMS_P2;Temp;Humidity;BMP_temperature;BMP_pressure;BME280_temperature;BME280_humidity;BME280_pressure;Samples;Min_cycle;Max_cycle;Signal;HPM_P1;HPM_P2
2023/04/30 00:01:59;;;;;;;77.80;15.45;;;;;;;;;;5017668;28;20225;-61
2023/04/30 00:04:26;;;;;;;74.88;14.95;;;;;;;;;;5005578;28;20103;-62
2023/04/30 00:06:54;;;;;;;49.75;13.07;;;;;;;;;;5005537;28;20100;-64
2023/04/30 00:09:21;;;;;;;128.35;18.48;;;;;;;;;;5007554;28;20065;-61
2023/04/30 00:11:47;;;;;;;77.25;14.60;;;;;;;;;;5006756;28;20065;-61
2023/04/30 00:14:14;;;;;;;60.88;14.15;;;;;;;;;;4993605;28;20143;-61
2023/04/30 00:16:40;;;;;;;142.20;18.73;;;;;;;;;;4986515;28;20137;-61
2023/04/30 00:19:07;;;;;;;93.90;16.10;;;;;;;;;;5006206;28;20125;-62
2023/04/30 00:21:35;;;;;;;89.30;15.73;;;;;;;;;;5007251;28;20468;-61
2023/04/30 00:24:01;;;;;;;143.82;18.67;;;;;;;;;;4999534;28;20034;-61
2023/04/30 00:26:28;;;;;;;111.38;17.67;;;;;;;;;;5009414;28;20125;-61
2023/04/30 00:28:55;;;;;;;70.32;14.27;;;;;;;;;;5005024;28;20087;-61
2023/04/30 00:31:22;;;;;;;135.48;18.55;;;;;;;;;;5002113;28;20480;-63
2023/04/30 00:33:49;;;;;;;87.57;15.05;;;;;;;;;;4991906;28;20053;-61
2023/04/30 00:36:16;;;;;;;57.70;12.98;;;;;;;;;;5007581;28;20699;-62
2023/04/30 00:38:42;;;;;;;91.88;15.88;;;;;;;;;;4991724;28;20601;-62
2023/04/30 00:41:09;;;;;;;79.03;14.43;;;;;;;;;;4990557;28;20133;-61
2023/04/30 00:43:35;;;;;;;86.30;16.90;;;;;;;;;;5007519;28;20053;-61
2023/04/30 00:46:04;;;;;;;94.65;16.75;;;;;;;;;;4989192;28;20145;-63
2023/04/30 00:48:30;;;;;;;70.60;14.60;;;;;;;;;;5003911;28;20121;-61
2023/04/30 00:50:57;;;;;;;73.57;14.70;;;;;;;;;;5005901;28;20093;-63
2023/04/30 00:53:23;;;;;;;101.63;16.05;;;;;;;;;;4989617;28;20045;-61
2023/04/30 00:55:50;;;;;;;94.88;16.58;;;;;;;;;;4985098;28;20524;-62
2023/04/30 00:58:17;;;;;;;58.03;13.18;;;;;;;;;;4989804;28;20052;-62
2023/04/30 01:00:45;;;;;;;74.85;15.38;;;;;;;;;;4990218;28;20046;-62
2023/04/30 01:03:13;;;;;;;110.70;17.50;;;;;;;;;;4992001;28;20054;-61
2023/04/30 01:05:39;;;;;;;92.90;16.85;;;;;;;;;;5028460;28;26314;-64
2023/04/30 01:08:07;;;;;;;79.45;15.35;;;;;;;;;;5021960;28;20049;-62
2023/04/30 01:10:41;;;;;;;106.07;17.98;;;;;;;;;;5004639;28;20545;-61
2023/04/30 01:13:11;;;;;;;67.60;14.60;;;;;;;;;;5019856;28;20072;-61
2023/04/30 01:16:09;;;;;;;139.05;19.67;;;;;;;;;;5021051;28;20428;-61
2023/04/30 01:18:41;;;;;;;84.30;16.00;;;;;;;;;;5001081;28;20125;-64
2023/04/30 01:21:08;;;;;;;103.43;17.65;;;;;;;;;;5027522;28;20435;-61
2023/04/30 01:23:52;;;;;;;120.55;19.38;;;;;;;;;;5028285;28;20103;-61
2023/04/30 01:26:28;;;;;;;117.07;18.67;;;;;;;;;;5008506;28;20054;-61
2023/04/30 01:28:56;;;;;;;76.47;16.25;;;;;;;;;;5011576;28;20508;-62
2023/04/30 01:31:22;;;;;;;141.55;20.63;;;;;;;;;;5022711;28;20132;-63
2023/04/30 01:33:49;;;;;;;76.18;16.85;;;;;;;;;;5010519;28;20407;-61
2023/04/30 01:36:45;;;;;;;72.07;16.33;;;;;;;;;;5020610;28;20087;-61
2023/04/30 01:39:35;;;;;;;86.57;17.20;;;;;;;;;;4939532;28;20144;-63
2023/04/30 01:42:05;;;;;;;158.00;21.52;;;;;;;;;;4947011;28;20058;-61
2023/04/30 01:44:50;;;;;;;107.68;18.80;;;;;;;;;;4947754;28;20158;-62
2023/04/30 01:47:23;;;;;;;124.85;19.48;;;;;;;;;;4947589;28;20917;-63
2023/04/30 01:50:10;;;;;;;60.17;15.48;;;;;;;;;;4948486;28;20059;-62
2023/04/30 01:52:40;;;;;;;116.18;17.98;;;;;;;;;;4947335;28;20051;-62
2023/04/30 01:55:12;;;;;;;87.82;17.38;;;;;;;;;;4941388;29;20051;-61
2023/04/30 01:57:41;;;;;;;160.35;22.67;;;;;;;;;;4945757;28;20051;-61
2023/04/30 02:00:11;;;;;;;94.82;17.77;;;;;;;;;;4947099;28;20283;-61
2023/04/30 02:02:39;;;;;;;140.43;20.95;;;;;;;;;;5064417;22;20080;-61
2023/04/30 02:05:06;;;;;;;139.95;20.85;;;;;;;;;;5021192;28;20048;-58
2023/04/30 02:07:40;;;;;;;79.53;16.75;;;;;;;;;;5021252;28;20060;-58
2023/04/30 02:10:07;;;;;;;91.28;17.85;;;;;;;;;;5004355;28;20057;-59
2023/04/30 02:12:34;;;;;;;166.70;24.02;;;;;;;;;;4998660;28;20125;-59
2023/04/30 02:15:01;;;;;;;96.00;18.60;;;;;;;;;;5005536;28;20045;-57
2023/04/30 02:17:28;;;;;;;114.60;19.63;;;;;;;;;;5006831;28;20406;-61
2023/04/30 02:19:54;;;;;;;115.38;19.63;;;;;;;;;;5006605;28;20184;-59
2023/04/30 02:22:21;;;;;;;78.35;17.65;;;;;;;;;;5017982;28;20042;-60
2023/04/30 02:24:48;;;;;;;83.88;18.25;;;;;;;;;;5027036;28;20041;-60
2023/04/30 02:27:15;;;;;;;119.28;20.65;;;;;;;;;;5019005;28;20554;-61
2023/04/30 02:29:41;;;;;;;83.05;17.17;;;;;;;;;;4998180;28;20068;-57
2023/04/30 02:32:08;;;;;;;87.53;17.92;;;;;;;;;;5009795;28;20076;-56
2023/04/30 02:34:34;;;;;;;153.45;22.27;;;;;;;;;;5019988;28;20052;-59
2023/04/30 02:37:02;;;;;;;68.05;16.77;;;;;;;;;;5015699;28;20074;-56
2023/04/30 02:39:28;;;;;;;97.72;18.90;;;;;;;;;;5019207;28;20543;-58
2023/04/30 02:41:55;;;;;;;134.55;20.70;;;;;;;;;;5021846;28;20056;-59
2023/04/30 02:44:21;;;;;;;81.90;18.65;;;;;;;;;;5020802;28;20582;-65
2023/04/30 02:46:48;;;;;;;82.15;18.65;;;;;;;;;;5019789;28;20717;-57
2023/04/30 02:49:14;;;;;;;138.50;21.90;;;;;;;;;;5020543;28;20041;-60
2023/04/30 02:51:41;;;;;;;72.40;17.52;;;;;;;;;;5017957;28;20061;-61
2023/04/30 02:54:07;;;;;;;89.35;18.15;;;;;;;;;;5006094;28;20057;-59
2023/04/30 02:56:34;;;;;;;167.00;25.75;;;;;;;;;;5005365;28;20049;-60
2023/04/30 02:59:00;;;;;;;93.22;19.15;;;;;;;;;;5023177;28;20095;-55
2023/04/30 03:01:27;;;;;;;88.53;19.33;;;;;;;;;;5034308;28;20105;-62
2023/04/30 03:03:54;;;;;;;119.30;22.15;;;;;;;;;;5023106;28;20507;-60
2023/04/30 03:06:20;;;;;;;103.75;21.20;;;;;;;;;;5006300;28;20549;-58
2023/04/30 03:08:47;;;;;;;68.20;19.80;;;;;;;;;;5024612;28;20043;-57
2023/04/30 03:11:13;;;;;;;127.10;24.15;;;;;;;;;;5022315;28;20045;-57
2023/04/30 03:13:40;;;;;;;124.38;23.80;;;;;;;;;;5020839;28;20045;-57
2023/04/30 03:16:06;;;;;;;89.13;20.75;;;;;;;;;;5022031;28;20037;-58
2023/04/30 03:18:33;;;;;;;112.22;22.35;;;;;;;;;;5005282;28;20084;-63
2023/04/30 03:21:00;;;;;;;91.10;21.13;;;;;;;;;;5020641;28;20053;-58
2023/04/30 03:23:27;;;;;;;118.18;22.80;;;;;;;;;;5026954;28;20045;-60
2023/04/30 03:25:54;;;;;;;94.38;21.10;;;;;;;;;;5026501;28;20422;-61
2023/04/30 03:28:21;;;;;;;91.90;20.00;;;;;;;;;;5020142;28;20066;-58
2023/04/30 03:30:47;;;;;;;71.15;18.67;;;;;;;;;;5006635;28;20052;-55
2023/04/30 03:33:14;;;;;;;99.72;20.55;;;;;;;;;;5021641;28;20580;-59
2023/04/30 03:35:40;;;;;;;141.57;23.70;;;;;;;;;;5012428;28;20092;-55
2023/04/30 03:38:07;;;;;;;87.47;20.65;;;;;;;;;;5027005;28;20046;-58
2023/04/30 03:40:34;;;;;;;83.50;21.42;;;;;;;;;;5026867;28;20128;-60
2023/04/30 03:43:01;;;;;;;111.47;23.27;;;;;;;;;;5025873;28;20145;-59
2023/04/30 03:45:28;;;;;;;90.90;20.95;;;;;;;;;;5023494;28;20041;-57
2023/04/30 03:47:54;;;;;;;83.55;20.35;;;;;;;;;;5021521;28;20049;-59
2023/04/30 03:50:21;;;;;;;99.57;19.20;;;;;;;;;;5012343;28;20472;-52
2023/04/30 03:52:47;;;;;;;61.92;16.40;;;;;;;;;;5004857;28;20050;-57
2023/04/30 03:55:15;;;;;;;91.63;18.30;;;;;;;;;;5020150;28;20053;-61
2023/04/30 03:57:42;;;;;;;118.38;19.15;;;;;;;;;;5006404;28;20057;-57
2023/04/30 04:00:09;;;;;;;70.15;14.90;;;;;;;;;;5007035;28;20041;-53
2023/04/30 04:02:39;;;;;;;102.82;17.98;;;;;;;;;;5018038;28;20061;-62
2023/04/30 04:05:09;;;;;;;108.57;16.70;;;;;;;;;;5018689;28;20042;-58
2023/04/30 04:07:36;;;;;;;71.25;13.55;;;;;;;;;;5000944;28;20112;-57
2023/04/30 04:10:03;;;;;;;71.80;12.27;;;;;;;;;;5020250;28;20455;-61
2023/04/30 04:12:30;;;;;;;89.50;13.63;;;;;;;;;;5008416;28;20034;-59
2023/04/30 04:14:57;;;;;;;61.15;11.57;;;;;;;;;;5021029;28;20034;-57
2023/04/30 04:17:23;;;;;;;75.47;11.50;;;;;;;;;;5009231;28;20049;-64
2023/04/30 04:19:50;;;;;;;98.97;13.63;;;;;;;;;;5005556;28;20052;-57
2023/04/30 04:22:17;;;;;;;49.25;10.00;;;;;;;;;;5025739;28;20049;-61
2023/04/30 04:24:46;;;;;;;79.40;12.43;;;;;;;;;;5008828;28;20129;-63
2023/04/30 04:27:19;;;;;;;94.53;12.93;;;;;;;;;;5022766;28;20045;-58
2023/04/30 04:29:46;;;;;;;85.35;11.05;;;;;;;;;;5020828;28;20037;-58
2023/04/30 04:32:13;;;;;;;114.10;13.90;;;;;;;;;;5020914;28;20045;-61
2023/04/30 04:34:42;;;;;;;59.03;10.43;;;;;;;;;;5027269;28;20049;-54
2023/04/30 04:37:08;;;;;;;74.40;10.65;;;;;;;;;;5021713;28;20083;-60
2023/04/30 04:39:36;;;;;;;120.28;14.38;;;;;;;;;;5023290;28;20095;-58
2023/04/30 04:42:03;;;;;;;74.13;11.27;;;;;;;;;;5010711;28;20037;-58
2023/04/30 04:44:31;;;;;;;84.63;12.18;;;;;;;;;;5001208;28;20045;-60
2023/04/30 04:46:57;;;;;;;107.22;13.52;;;;;;;;;;5007105;28;20057;-56
2023/04/30 04:49:24;;;;;;;80.50;11.73;;;;;;;;;;5018379;28;20136;-56
2023/04/30 04:51:51;;;;;;;64.70;10.23;;;;;;;;;;5002612;28;20128;-55
2023/04/30 04:54:17;;;;;;;74.20;11.07;;;;;;;;;;5020636;28;20048;-59
2023/04/30 04:56:44;;;;;;;54.05;9.98;;;;;;;;;;5011069;28;20045;-54
2023/04/30 04:59:11;;;;;;;80.43;11.63;;;;;;;;;;5020330;28;20046;-53
2023/04/30 05:01:37;;;;;;;104.18;12.77;;;;;;;;;;5002150;28;20107;-62
2023/04/30 05:04:04;;;;;;;72.07;10.40;;;;;;;;;;5007727;28;20054;-58
2023/04/30 05:06:31;;;;;;;54.05;9.50;;;;;;;;;;5021388;28;20042;-57
2023/04/30 05:08:58;;;;;;;107.57;13.55;;;;;;;;;;5018409;28;20072;-62
2023/04/30 05:11:24;;;;;;;76.32;10.38;;;;;;;;;;5022232;28;20534;-64
2023/04/30 05:13:51;;;;;;;58.13;9.73;;;;;;;;;;5024183;28;20112;-60
2023/04/30 05:16:18;;;;;;;69.80;10.80;;;;;;;;;;5017851;28;20038;-58
2023/04/30 05:18:44;;;;;;;116.43;13.82;;;;;;;;;;5004328;28;20071;-59
2023/04/30 05:21:11;;;;;;;71.53;11.45;;;;;;;;;;5020408;28;20051;-54
2023/04/30 05:23:37;;;;;;;97.30;12.32;;;;;;;;;;5018977;28;20041;-60
2023/04/30 05:26:04;;;;;;;82.13;12.10;;;;;;;;;;5017753;28;20056;-55
2023/04/30 05:28:30;;;;;;;78.97;12.30;;;;;;;;;;5019885;28;20056;-60
2023/04/30 05:30:57;;;;;;;76.35;12.20;;;;;;;;;;5005276;28;20144;-60
2023/04/30 05:33:23;;;;;;;112.95;15.00;;;;;;;;;;5022834;28;20044;-59
2023/04/30 05:35:50;;;;;;;65.88;11.90;;;;;;;;;;5020200;28;20475;-58
2023/04/30 05:38:16;;;;;;;64.40;11.50;;;;;;;;;;5020567;28;20049;-57
2023/04/30 05:40:43;;;;;;;103.10;13.70;;;;;;;;;;5018307;28;20046;-60
2023/04/30 05:43:10;;;;;;;79.82;12.25;;;;;;;;;;4999274;28;20050;-57
2023/04/30 05:45:36;;;;;;;79.05;12.07;;;;;;;;;;5019120;28;20054;-58
2023/04/30 05:48:03;;;;;;;106.88;14.85;;;;;;;;;;5019113;28;20045;-59
2023/04/30 05:50:30;;;;;;;103.85;14.10;;;;;;;;;;5016839;28;20056;-60
2023/04/30 05:52:56;;;;;;;71.63;11.60;;;;;;;;;;5003308;28;20073;-56
2023/04/30 05:55:23;;;;;;;94.53;13.65;;;;;;;;;;5020302;28;20065;-62
2023/04/30 05:57:49;;;;;;;84.35;12.60;;;;;;;;;;5002401;28;20068;-59
2023/04/30 06:00:16;;;;;;;85.00;12.82;;;;;;;;;;5001456;28;20390;-58
2023/04/30 06:02:43;;;;;;;184.85;19.63;;;;;;;;;;5003411;28;20121;-58
2023/04/30 06:05:09;;;;;;;90.32;13.50;;;;;;;;;;5000019;28;20046;-60
2023/04/30 06:07:36;;;;;;;47.88;10.27;;;;;;;;;;4997193;28;20050;-57
2023/04/30 06:10:02;;;;;;;106.43;14.05;;;;;;;;;;5006250;28;20399;-58
2023/04/30 06:12:29;;;;;;;101.20;13.82;;;;;;;;;;5001611;28;20034;-59
2023/04/30 06:14:56;;;;;;;66.03;11.23;;;;;;;;;;4980618;28;20046;-59
2023/04/30 06:17:22;;;;;;;86.13;11.35;;;;;;;;;;4984849;28;20678;-59
2023/04/30 06:19:50;;;;;;;90.45;11.95;;;;;;;;;;5003490;28;20043;-58
2023/04/30 06:22:16;;;;;;;44.95;8.55;;;;;;;;;;4988837;28;20050;-61
2023/04/30 06:24:43;;;;;;;113.28;12.98;;;;;;;;;;5002582;28;20134;-62
2023/04/30 06:27:09;;;;;;;109.15;12.05;;;;;;;;;;4992191;28;20129;-56
2023/04/30 06:29:36;;;;;;;131.77;13.48;;;;;;;;;;4992220;28;20069;-59
2023/04/30 06:32:02;;;;;;;70.18;10.70;;;;;;;;;;4991721;28;20046;-61
2023/04/30 06:34:31;;;;;;;71.38;9.45;;;;;;;;;;5002938;28;20092;-57
2023/04/30 06:36:58;;;;;;;61.20;8.07;;;;;;;;;;5006319;28;20058;-58
2023/04/30 06:39:24;;;;;;;87.78;10.55;;;;;;;;;;5003291;28;20048;-62
2023/04/30 06:41:51;;;;;;;83.75;9.52;;;;;;;;;;5003272;28;20121;-62
2023/04/30 06:44:19;;;;;;;51.05;7.68;;;;;;;;;;4986604;28;20108;-58
2023/04/30 06:46:46;;;;;;;101.72;10.18;;;;;;;;;;4973744;28;20566;-61
2023/04/30 06:49:13;;;;;;;103.05;10.32;;;;;;;;;;4988917;28;20069;-59
2023/04/30 06:51:40;;;;;;;113.38;11.38;;;;;;;;;;5002879;28;20038;-60
2023/04/30 06:54:07;;;;;;;121.95;11.13;;;;;;;;;;4980450;28;20058;-61
2023/04/30 06:56:33;;;;;;;143.35;11.85;;;;;;;;;;4998228;28;20064;-60
2023/04/30 06:59:00;;;;;;;83.18;7.75;;;;;;;;;;5002505;28;20080;-60
2023/04/30 07:01:26;;;;;;;107.95;9.95;;;;;;;;;;5001245;28;20054;-59
2023/04/30 07:03:53;;;;;;;99.65;9.13;;;;;;;;;;5002504;28;20073;-61
2023/04/30 07:06:20;;;;;;;64.97;6.18;;;;;;;;;;5012799;28;20132;-60
2023/04/30 07:08:47;;;;;;;54.50;5.65;;;;;;;;;;5021660;28;20053;-60
2023/04/30 07:11:14;;;;;;;94.30;8.93;;;;;;;;;;5021774;28;20034;-61
2023/04/30 07:13:41;;;;;;;51.67;6.18;;;;;;;;;;5021230;28;20054;-60
2023/04/30 07:16:09;;;;;;;65.10;7.20;;;;;;;;;;5005519;28;20056;-59
2023/04/30 07:18:36;;;;;;;100.05;9.55;;;;;;;;;;5019936;28;20231;-58
2023/04/30 07:21:03;;;;;;;71.82;7.35;;;;;;;;;;5021582;28;20041;-63
2023/04/30 07:23:32;;;;;;;69.95;7.68;;;;;;;;;;5026943;28;20045;-62
2023/04/30 07:25:59;;;;;;;100.45;9.50;;;;;;;;;;5010444;28;20108;-60
2023/04/30 07:28:25;;;;;;;56.85;6.53;;;;;;;;;;5019043;28;20053;-62
2023/04/30 07:30:52;;;;;;;66.68;8.25;;;;;;;;;;5007544;28;20104;-56
2023/04/30 07:33:18;;;;;;;121.25;11.50;;;;;;;;;;5010807;28;20078;-59
2023/04/30 07:35:45;;;;;;;86.63;9.50;;;;;;;;;;5021840;28;20046;-60
2023/04/30 07:38:11;;;;;;;60.28;7.47;;;;;;;;;;5010849;28;20050;-60
2023/04/30 07:40:38;;;;;;;124.32;12.13;;;;;;;;;;5010752;28;20584;-57
2023/04/30 07:43:05;;;;;;;65.72;7.63;;;;;;;;;;5012397;28;20065;-59
2023/04/30 07:45:32;;;;;;;59.17;7.20;;;;;;;;;;5012391;28;20091;-61
2023/04/30 07:47:59;;;;;;;138.43;12.35;;;;;;;;;;5025529;28;20041;-61
2023/04/30 07:50:28;;;;;;;42.00;5.97;;;;;;;;;;5011815;28;20408;-57
2023/04/30 07:52:55;;;;;;;72.35;7.25;;;;;;;;;;5019871;28;20041;-62
2023/04/30 07:55:21;;;;;;;106.32;9.45;;;;;;;;;;5020489;28;20472;-59
2023/04/30 07:57:48;;;;;;;49.15;5.47;;;;;;;;;;5023948;28;20057;-56
2023/04/30 08:00:15;;;;;;;48.88;5.97;;;;;;;;;;5021745;28;20499;-58
2023/04/30 08:02:44;;;;;;;147.40;12.15;;;;;;;;;;5008561;28;20109;-55
2023/04/30 08:05:11;;;;;;;61.30;6.32;;;;;;;;;;5007663;28;20899;-55
2023/04/30 08:07:38;;;;;;;61.30;6.53;;;;;;;;;;5001997;28;20414;-54
2023/04/30 08:10:05;;;;;;;86.97;8.55;;;;;;;;;;4988733;28;20050;-63
2023/04/30 08:12:34;;;;;;;63.70;6.13;;;;;;;;;;4984208;28;20125;-60
2023/04/30 08:15:05;;;;;;;66.57;6.28;;;;;;;;;;4999193;28;20078;-56
2023/04/30 08:17:32;;;;;;;89.35;8.15;;;;;;;;;;4998416;28;20053;-59
2023/04/30 08:20:08;;;;;;;72.38;7.50;;;;;;;;;;5002268;28;20046;-61
2023/04/30 08:22:35;;;;;;;106.43;9.98;;;;;;;;;;4985995;28;20038;-61
2023/04/30 08:25:01;;;;;;;73.32;7.57;;;;;;;;;;4990020;28;20077;-60
2023/04/30 08:27:29;;;;;;;45.33;6.03;;;;;;;;;;4996661;28;20051;-58
2023/04/30 08:29:56;;;;;;;110.47;9.73;;;;;;;;;;4973271;28;20073;-56
2023/04/30 08:32:23;;;;;;;56.13;6.65;;;;;;;;;;4999552;28;20089;-60
2023/04/30 08:34:50;;;;;;;47.03;5.88;;;;;;;;;;5000180;28;20100;-58
2023/04/30 08:37:17;;;;;;;107.20;9.32;;;;;;;;;;5003230;28;20042;-60
2023/04/30 08:39:43;;;;;;;76.13;7.45;;;;;;;;;;5005486;28;20046;-61
2023/04/30 08:42:12;;;;;;;77.25;7.03;;;;;;;;;;5001628;28;20056;-60
2023/04/30 08:44:42;;;;;;;127.53;10.35;;;;;;;;;;4990944;28;20046;-59
2023/04/30 08:47:11;;;;;;;86.18;7.50;;;;;;;;;;5000339;28;20484;-59
2023/04/30 08:49:39;;;;;;;63.83;6.25;;;;;;;;;;4985206;28;20054;-61
2023/04/30 08:52:05;;;;;;;97.35;8.32;;;;;;;;;;5001791;28;20484;-60
2023/04/30 08:54:34;;;;;;;65.00;6.50;;;;;;;;;;4980363;28;20042;-62
2023/04/30 08:57:01;;;;;;;70.63;6.70;;;;;;;;;;4999032;28;20089;-63
2023/04/30 08:59:28;;;;;;;78.03;7.50;;;;;;;;;;5001278;28;20053;-61
2023/04/30 09:01:54;;;;;;;49.75;6.05;;;;;;;;;;5004080;28;20141;-58
2023/04/30 09:04:21;;;;;;;63.45;6.40;;;;;;;;;;5008032;28;20042;-62
2023/04/30 09:06:51;;;;;;;106.57;9.68;;;;;;;;;;5000133;28;20124;-62
2023/04/30 09:09:17;;;;;;;76.57;7.43;;;;;;;;;;5001965;28;20502;-61
2023/04/30 09:11:44;;;;;;;70.95;7.07;;;;;;;;;;4983407;28;20046;-63
2023/04/30 09:14:11;;;;;;;164.50;11.70;;;;;;;;;;4989644;28;20054;-54
2023/04/30 09:16:48;;;;;;;77.38;7.20;;;;;;;;;;5006977;28;20052;-60
2023/04/30 09:19:25;;;;;;;48.28;5.40;;;;;;;;;;5003198;28;20520;-63
2023/04/30 09:21:51;;;;;;;76.80;7.93;;;;;;;;;;5002610;28;20141;-63
2023/04/30 09:24:18;;;;;;;36.70;5.05;;;;;;;;;;4985860;28;20053;-61
2023/04/30 09:26:48;;;;;;;108.90;9.95;;;;;;;;;;4990554;28;20048;-63
2023/04/30 09:29:14;;;;;;;66.53;6.68;;;;;;;;;;4974964;28;20061;-59
2023/04/30 09:31:43;;;;;;;57.47;5.78;;;;;;;;;;4983986;28;20056;-60
2023/04/30 09:34:10;;;;;;;115.10;9.82;;;;;;;;;;4983011;28;20160;-55
2023/04/30 09:36:36;;;;;;;63.10;6.05;;;;;;;;;;4986609;28;20048;-57
2023/04/30 09:39:06;;;;;;;73.68;6.47;;;;;;;;;;5002839;28;20054;-60
2023/04/30 09:41:36;;;;;;;158.23;11.90;;;;;;;;;;5000361;28;20052;-57
2023/04/30 09:44:03;;;;;;;85.18;7.55;;;;;;;;;;5002959;28;20381;-61
2023/04/30 09:46:30;;;;;;;82.75;6.78;;;;;;;;;;5003019;28;20039;-62
2023/04/30 09:48:58;;;;;;;114.57;8.90;;;;;;;;;;4997055;28;20049;-57
2023/04/30 09:51:25;;;;;;;50.58;4.55;;;;;;;;;;4990623;28;20056;-62
2023/04/30 09:53:53;;;;;;;57.47;5.10;;;;;;;;;;4998891;28;20053;-62
2023/04/30 09:56:23;;;;;;;109.07;9.45;;;;;;;;;;5001875;28;20124;-58
2023/04/30 09:58:52;;;;;;;40.47;3.75;;;;;;;;;;4990679;28;20041;-54
2023/04/30 10:01:19;;;;;;;63.60;5.28;;;;;;;;;;4982135;28;20507;-61
2023/04/30 10:03:47;;;;;;;88.28;6.70;;;;;;;;;;5005363;28;20544;-54
2023/04/30 10:06:15;;;;;;;64.57;5.75;;;;;;;;;;5004619;28;20049;-60
2023/04/30 10:08:43;;;;;;;107.85;8.90;;;;;;;;;;5003975;28;20050;-60
2023/04/30 10:11:15;;;;;;;64.68;5.80;;;;;;;;;;4998998;28;20799;-55
2023/04/30 10:13:44;;;;;;;48.00;4.38;;;;;;;;;;5004333;28;20056;-57
2023/04/30 10:16:17;;;;;;;104.68;8.50;;;;;;;;;;5002912;28;20100;-55
2023/04/30 10:18:45;;;;;;;68.88;5.88;;;;;;;;;;4978638;28;20136;-61
2023/04/30 10:21:13;;;;;;;64.93;6.05;;;;;;;;;;4986352;28;20404;-59
2023/04/30 10:23:42;;;;;;;118.90;9.02;;;;;;;;;;4987862;28;20052;-58
2023/04/30 10:26:11;;;;;;;58.25;5.78;;;;;;;;;;4988379;28;20518;-57
2023/04/30 10:28:39;;;;;;;67.00;5.78;;;;;;;;;;5004780;28;20038;-59
2023/04/30 10:31:07;;;;;;;96.65;7.50;;;;;;;;;;4993275;28;20052;-54
2023/04/30 10:33:39;;;;;;;54.50;4.38;;;;;;;;;;5003890;28;20442;-60
2023/04/30 10:36:08;;;;;;;101.13;8.25;;;;;;;;;;5002489;28;20049;-58
2023/04/30 10:38:35;;;;;;;95.68;7.68;;;;;;;;;;5006438;28;20157;-58
2023/04/30 10:41:01;;;;;;;56.97;4.82;;;;;;;;;;5004265;28;20569;-58
2023/04/30 10:43:29;;;;;;;104.78;7.88;;;;;;;;;;4976054;28;20051;-51
2023/04/30 10:45:58;;;;;;;63.97;5.03;;;;;;;;;;4991424;28;20045;-61
2023/04/30 10:48:26;;;;;;;60.47;5.07;;;;;;;;;;5003557;28;20052;-58
2023/04/30 10:50:59;;;;;;;136.95;10.02;;;;;;;;;;4993239;28;20541;-60
2023/04/30 10:53:29;;;;;;;43.28;3.90;;;;;;;;;;5007827;28;20511;-56
2023/04/30 10:56:00;;;;;;;66.57;5.60;;;;;;;;;;5005679;28;20053;-61
2023/04/30 10:58:31;;;;;;;65.63;5.32;;;;;;;;;;4991283;28;20133;-56
2023/04/30 11:01:19;;;;;;;88.18;7.00;;;;;;;;;;4988077;28;20129;-55
2023/04/30 11:04:05;;;;;;;81.72;6.45;;;;;;;;;;5003933;28;20069;-60
2023/04/30 11:06:50;;;;;;;72.55;5.93;;;;;;;;;;5022816;28;20045;-58
2023/04/30 11:09:17;;;;;;;37.67;3.58;;;;;;;;;;5010546;28;20077;-60
2023/04/30 11:11:44;;;;;;;109.18;8.38;;;;;;;;;;5021223;28;20077;-61
2023/04/30 11:14:11;;;;;;;163.05;10.30;;;;;;;;;;5025742;28;20053;-58
2023/04/30 11:16:38;;;;;;;70.75;6.15;;;;;;;;;;5025319;28;20052;-58
2023/04/30 11:19:12;;;;;;;64.25;5.28;;;;;;;;;;5010062;28;20060;-59
2023/04/30 11:21:59;;;;;;;63.90;5.50;;;;;;;;;;5026331;28;20057;-58
2023/04/30 11:24:45;;;;;;;90.60;7.53;;;;;;;;;;5004115;28;20041;-62
2023/04/30 11:27:11;;;;;;;72.13;6.00;;;;;;;;;;5008254;28;20394;-60
2023/04/30 11:29:39;;;;;;;96.85;7.70;;;;;;;;;;5019407;28;20082;-62
2023/04/30 11:32:06;;;;;;;85.18;6.78;;;;;;;;;;5024309;28;20048;-64
2023/04/30 11:34:33;;;;;;;60.55;4.85;;;;;;;;;;5026060;28;20124;-61
2023/04/30 11:37:00;;;;;;;74.22;6.50;;;;;;;;;;5025751;28;20094;-61
2023/04/30 11:39:27;;;;;;;100.30;7.95;;;;;;;;;;5010159;28;20033;-61
2023/04/30 11:41:54;;;;;;;57.75;4.93;;;;;;;;;;5011971;28;20076;-62
2023/04/30 11:44:22;;;;;;;53.50;6.18;;;;;;;;;;5010937;28;20041;-60
2023/04/30 11:46:49;;;;;;;80.55;6.93;;;;;;;;;;5008982;28;20144;-58
2023/04/30 11:49:16;;;;;;;48.08;4.80;;;;;;;;;;5010338;28;20049;-61
2023/04/30 11:51:47;;;;;;;78.45;8.57;;;;;;;;;;5024850;28;20049;-63
2023/04/30 11:54:13;;;;;;;57.40;5.30;;;;;;;;;;5024699;28;20045;-59
2023/04/30 11:56:45;;;;;;;67.80;6.00;;;;;;;;;;5021561;28;20041;-61
2023/04/30 11:59:12;;;;;;;101.00;8.07;;;;;;;;;;5020571;28;20041;-59
2023/04/30 12:01:39;;;;;;;130.63;10.32;;;;;;;;;;5019879;28;20411;-61
2023/04/30 12:04:06;;;;;;;46.90;4.38;;;;;;;;;;5007999;28;20045;-62
2023/04/30 12:06:33;;;;;;;81.40;7.55;;;;;;;;;;5020625;28;20069;-59
2023/04/30 12:09:03;;;;;;;96.65;7.47;;;;;;;;;;5020746;28;20045;-57
2023/04/30 12:11:30;;;;;;;63.67;5.38;;;;;;;;;;5022482;28;20050;-59
2023/04/30 12:14:02;;;;;;;124.20;9.90;;;;;;;;;;5005839;28;20120;-60
2023/04/30 12:16:59;;;;;;;81.35;6.55;;;;;;;;;;5001102;28;20045;-59
2023/04/30 12:19:26;;;;;;;85.57;8.00;;;;;;;;;;4983990;28;20493;-60
2023/04/30 12:21:53;;;;;;;71.75;6.05;;;;;;;;;;5018661;28;20042;-55
2023/04/30 12:24:22;;;;;;;69.47;6.25;;;;;;;;;;5007478;28;20044;-60
2023/04/30 12:26:52;;;;;;;95.35;8.35;;;;;;;;;;5002208;28;21131;-60
2023/04/30 12:29:18;;;;;;;58.45;5.15;;;;;;;;;;5011868;28;20480;-60
2023/04/30 12:31:48;;;;;;;77.60;6.03;;;;;;;;;;5020679;28;20072;-61
2023/04/30 12:34:16;;;;;;;67.22;5.40;;;;;;;;;;5017349;28;20069;-63
2023/04/30 12:36:42;;;;;;;54.65;5.07;;;;;;;;;;5022872;28;20037;-58
2023/04/30 12:39:10;;;;;;;102.28;7.82;;;;;;;;;;5020618;28;20037;-59
2023/04/30 12:41:44;;;;;;;95.68;7.22;;;;;;;;;;5001131;28;20068;-60
2023/04/30 12:44:13;;;;;;;83.60;6.45;;;;;;;;;;5019663;28;20091;-60
2023/04/30 12:46:40;;;;;;;132.63;9.60;;;;;;;;;;5021273;28;20057;-62
2023/04/30 12:49:07;;;;;;;73.90;5.85;;;;;;;;;;5003724;28;20416;-57
2023/04/30 12:51:39;;;;;;;88.13;6.90;;;;;;;;;;5019650;28;20132;-61
2023/04/30 12:54:06;;;;;;;29.55;3.30;;;;;;;;;;5006831;28;20129;-60
2023/04/30 12:56:33;;;;;;;17.15;2.42;;;;;;;;;;5023939;28;20092;-67
2023/04/30 12:59:00;;;;;;;39.65;3.45;;;;;;;;;;5010875;28;20046;-58
2023/04/30 13:01:27;;;;;;;55.85;4.50;;;;;;;;;;5022849;28;20048;-60
2023/04/30 13:03:53;;;;;;;43.97;4.22;;;;;;;;;;5008900;28;20053;-61
2023/04/30 13:06:21;;;;;;;55.83;5.03;;;;;;;;;;5028346;28;20049;-59
2023/04/30 13:08:49;;;;;;;202.95;15.77;;;;;;;;;;5026316;28;20037;-62
2023/04/30 13:11:25;;;;;;;32.78;3.38;;;;;;;;;;5009809;28;20048;-61
2023/04/30 13:13:54;;;;;;;71.07;5.60;;;;;;;;;;5010570;28;20076;-61
2023/04/30 13:16:23;;;;;;;58.40;4.50;;;;;;;;;;5023027;28;20046;-61
2023/04/30 13:18:50;;;;;;;39.17;3.78;;;;;;;;;;5022771;28;20403;-61
2023/04/30 13:21:17;;;;;;;78.20;7.43;;;;;;;;;;5011524;28;20095;-60
2023/04/30 13:23:45;;;;;;;82.28;6.60;;;;;;;;;;5010175;28;20052;-59
2023/04/30 13:26:21;;;;;;;39.72;3.60;;;;;;;;;;5010266;28;20084;-61
2023/04/30 13:28:49;;;;;;;55.17;4.40;;;;;;;;;;5022528;28;20142;-64
2023/04/30 13:31:15;;;;;;;26.45;2.90;;;;;;;;;;5011524;28;20133;-62
2023/04/30 13:33:43;;;;;;;24.45;2.75;;;;;;;;;;4985777;28;20041;-62
2023/04/30 13:36:11;;;;;;;116.88;8.45;;;;;;;;;;5003029;28;20043;-61
2023/04/30 13:38:38;;;;;;;33.88;3.35;;;;;;;;;;4995974;28;20060;-60
2023/04/30 13:41:05;;;;;;;45.63;4.10;;;;;;;;;;5021809;28;20459;-62
2023/04/30 13:43:31;;;;;;;49.67;4.25;;;;;;;;;;5020928;28;20041;-59
2023/04/30 13:45:58;;;;;;;75.60;5.80;;;;;;;;;;5025529;28;20095;-61
2023/04/30 13:48:25;;;;;;;56.08;4.85;;;;;;;;;;5020941;28;20171;-61
2023/04/30 13:50:51;;;;;;;103.63;8.32;;;;;;;;;;5020321;28;20612;-60
2023/04/30 13:53:18;;;;;;;25.98;2.80;;;;;;;;;;5023492;28;20076;-60
2023/04/30 13:55:44;;;;;;;22.33;2.78;;;;;;;;;;5022868;28;20076;-64
2023/04/30 13:58:11;;;;;;;56.83;5.22;;;;;;;;;;5016488;28;20753;-60
2023/04/30 14:00:38;;;;;;;32.55;3.40;;;;;;;;;;5007397;28;20095;-61
2023/04/30 14:03:05;;;;;;;23.00;2.97;;;;;;;;;;5012153;28;20045;-63
2023/04/30 14:05:34;;;;;;;30.00;3.00;;;;;;;;;;5019532;28;20053;-60
2023/04/30 14:08:01;;;;;;;44.97;4.32;;;;;;;;;;5006745;28;20574;-57
2023/04/30 14:10:27;;;;;;;64.68;4.90;;;;;;;;;;5021543;28;20038;-60
2023/04/30 14:12:54;;;;;;;197.23;13.50;;;;;;;;;;5020142;28;20061;-61
2023/04/30 14:15:21;;;;;;;160.30;9.85;;;;;;;;;;5022257;28;20589;-62
2023/04/30 14:17:47;;;;;;;80.82;6.28;;;;;;;;;;5020683;28;20439;-61
2023/04/30 14:20:14;;;;;;;56.80;4.53;;;;;;;;;;5026278;28;20092;-59
2023/04/30 14:22:41;;;;;;;45.65;4.57;;;;;;;;;;5025578;28;20046;-57
2023/04/30 14:25:08;;;;;;;41.85;4.40;;;;;;;;;;5002982;28;20048;-60
2023/04/30 14:27:35;;;;;;;53.20;4.97;;;;;;;;;;5004713;28;20218;-62